Time,TemperatureF,DewpointF,PressureIn,WindDirection,WindDirectionDegrees,WindSpeedMPH,WindSpeedGustMPH,Humidity,HourlyPrecipIn,Conditions,Clouds,dailyrainin,SoftwareType,DateUTC
2013-08-02 00:01:00,58.5,54.9,30.01,South,185,5.0,9.0,88,0.00,,,0.00,meteohub,2013-08-02 07:01:00,
2013-08-02 00:06:00,58.5,55.2,30.01,South,186,0.0,6.0,89,0.00,,,0.00,meteohub,2013-08-02 07:06:00,
2013-08-02 00:11:00,58.3,54.7,30.01,South,185,3.0,6.0,88,0.00,,,0.00,meteohub,2013-08-02 07:11:00,
2013-08-02 00:16:00,57.9,54.3,30.01,SSE,164,3.0,6.0,88,0.00,,,0.00,meteohub,2013-08-02 07:16:00,
2013-08-02 00:21:00,57.9,54.3,30.00,SSE,159,5.0,5.0,88,0.00,,,0.00,meteohub,2013-08-02 07:21:00,
2013-08-02 00:26:00,57.9,54.3,30.00,South,170,6.0,8.0,88,0.00,,,0.00,meteohub,2013-08-02 07:26:00,
2013-08-02 00:32:00,57.9,54.7,30.00,SSE,166,6.0,8.0,89,0.00,,,0.00,meteohub,2013-08-02 07:32:00,
2013-08-02 00:37:00,57.9,54.7,30.00,South,179,3.0,10.0,89,0.00,,,0.00,meteohub,2013-08-02 07:37:00,
2013-08-02 00:42:00,57.9,54.7,30.00,SSE,157,5.0,10.0,89,0.00,,,0.00,meteohub,2013-08-02 07:42:00,
2013-08-02 00:47:00,57.9,54.7,30.00,SSE,164,4.0,10.0,89,0.00,,,0.00,meteohub,2013-08-02 07:47:00,
2013-08-02 00:52:00,57.9,54.7,30.00,SSE,156,9.0,9.0,89,0.00,,,0.00,meteohub,2013-08-02 07:52:00,
2013-08-02 00:57:00,57.9,55.0,30.00,SSE,162,5.0,10.0,90,0.00,,,0.00,meteohub,2013-08-02 07:57:00,
2013-08-02 01:02:00,57.9,55.0,29.99,SSE,152,4.0,10.0,90,0.00,,,0.00,meteohub,2013-08-02 08:02:00,
2013-08-02 01:07:00,57.7,54.5,29.99,SSE,147,10.0,11.0,89,0.00,,,0.00,meteohub,2013-08-02 08:07:00,
2013-08-02 01:12:00,57.7,54.9,30.00,SSE,154,6.0,13.0,90,0.00,,,0.00,meteohub,2013-08-02 08:12:00,
2013-08-02 01:17:00,57.6,54.7,30.00,SSE,161,4.0,13.0,90,0.00,,,0.00,meteohub,2013-08-02 08:17:00,
2013-08-02 01:23:00,57.6,54.7,29.99,SSE,160,3.0,13.0,90,0.00,,,0.00,meteohub,2013-08-02 08:23:00,
2013-08-02 01:28:00,57.6,54.7,29.99,SSE,158,8.0,12.0,90,0.00,,,0.00,meteohub,2013-08-02 08:28:00,
2013-08-02 01:33:00,57.6,54.7,30.00,SSE,168,12.0,12.0,90,0.00,,,0.00,meteohub,2013-08-02 08:33:00,
2013-08-02 01:38:00,57.6,54.7,29.99,SSE,154,5.0,12.0,90,0.00,,,0.00,meteohub,2013-08-02 08:38:00,
2013-08-02 01:43:00,57.6,54.7,29.99,SSE,156,6.0,12.0,90,0.00,,,0.00,meteohub,2013-08-02 08:43:00,
2013-08-02 01:48:00,57.6,54.7,29.99,SE,145,7.0,12.0,90,0.00,,,0.00,meteohub,2013-08-02 08:48:00,
2013-08-02 01:54:00,57.6,54.7,29.99,SE,133,7.0,12.0,90,0.00,,,0.00,meteohub,2013-08-02 08:54:00,
2013-08-02 01:59:00,57.6,54.7,30.00,SE,125,10.0,13.0,90,0.00,,,0.00,meteohub,2013-08-02 08:59:00,
2013-08-02 02:04:00,57.7,54.9,29.99,SE,141,3.0,13.0,90,0.00,,,0.00,meteohub,2013-08-02 09:04:00,
2013-08-02 02:09:00,57.6,54.7,30.00,South,172,8.0,13.0,90,0.00,,,0.00,meteohub,2013-08-02 09:09:00,
2013-08-02 02:14:00,57.6,54.7,30.00,SSE,159,5.0,13.0,90,0.00,,,0.00,meteohub,2013-08-02 09:14:00,
2013-08-02 02:19:00,57.7,54.5,29.99,SSE,160,4.0,11.0,89,0.00,,,0.00,meteohub,2013-08-02 09:19:00,
2013-08-02 02:24:00,57.6,54.7,29.99,SE,142,5.0,9.0,90,0.00,,,0.00,meteohub,2013-08-02 09:24:00,
2013-08-02 02:29:00,57.6,54.7,29.99,SSE,147,7.0,9.0,90,0.00,,,0.00,meteohub,2013-08-02 09:29:00,
2013-08-02 02:34:00,57.6,54.7,29.99,SSE,163,2.0,10.0,90,0.00,,,0.00,meteohub,2013-08-02 09:34:00,
2013-08-02 02:39:00,57.4,54.5,29.99,SSE,158,4.0,10.0,90,0.00,,,0.00,meteohub,2013-08-02 09:39:00,
2013-08-02 02:44:00,57.0,54.1,29.99,SSE,149,6.0,9.0,90,0.00,,,0.00,meteohub,2013-08-02 09:44:00,
2013-08-02 02:49:00,57.0,54.1,29.99,SE,140,5.0,9.0,90,0.00,,,0.00,meteohub,2013-08-02 09:49:00,
2013-08-02 02:54:00,56.8,54.0,29.98,SSE,154,7.0,10.0,90,0.00,,,0.00,meteohub,2013-08-02 09:54:00,
2013-08-02 03:00:00,56.8,54.0,29.99,SE,146,4.0,10.0,90,0.00,,,0.00,meteohub,2013-08-02 10:00:00,
2013-08-02 03:05:00,56.7,53.8,29.98,SE,138,5.0,11.0,90,0.00,,,0.00,meteohub,2013-08-02 10:05:00,
2013-08-02 03:10:00,56.7,53.8,29.98,SSE,147,4.0,11.0,90,0.00,,,0.00,meteohub,2013-08-02 10:10:00,
2013-08-02 03:15:00,56.7,53.8,29.98,South,170,5.0,11.0,90,0.00,,,0.00,meteohub,2013-08-02 10:15:00,
2013-08-02 03:20:00,56.7,54.1,29.98,South,185,2.0,11.0,91,0.00,,,0.00,meteohub,2013-08-02 10:20:00,
2013-08-02 03:25:00,56.7,54.1,29.98,South,181,5.0,10.0,91,0.00,,,0.00,meteohub,2013-08-02 10:25:00,
2013-08-02 03:30:00,56.7,54.1,29.98,SSE,168,5.0,8.0,91,0.00,,,0.00,meteohub,2013-08-02 10:30:00,
2013-08-02 03:35:00,56.5,54.0,29.98,SSE,168,9.0,10.0,91,0.00,,,0.00,meteohub,2013-08-02 10:35:00,
2013-08-02 03:41:00,56.5,54.0,29.98,SSE,155,5.0,10.0,91,0.00,,,0.00,meteohub,2013-08-02 10:41:00,
2013-08-02 03:46:00,56.3,53.8,29.98,SSE,158,4.0,10.0,91,0.00,,,0.00,meteohub,2013-08-02 10:46:00,
2013-08-02 03:51:00,56.3,53.8,29.97,SSE,156,6.0,9.0,91,0.00,,,0.00,meteohub,2013-08-02 10:51:00,
2013-08-02 03:56:00,56.1,53.6,29.97,SSE,156,5.0,7.0,91,0.00,,,0.00,meteohub,2013-08-02 10:56:00,
2013-08-02 04:01:00,56.1,53.6,29.97,SSE,158,5.0,7.0,91,0.00,,,0.00,meteohub,2013-08-02 11:01:00,
2013-08-02 04:06:00,56.1,53.6,29.97,South,186,7.0,9.0,91,0.00,,,0.00,meteohub,2013-08-02 11:06:00,
2013-08-02 04:11:00,55.9,53.4,29.98,South,189,2.0,9.0,91,0.00,,,0.00,meteohub,2013-08-02 11:11:00,
2013-08-02 04:17:00,55.9,53.4,29.98,South,189,5.0,9.0,91,0.00,,,0.00,meteohub,2013-08-02 11:17:00,
2013-08-02 04:22:00,55.8,53.2,29.98,South,181,7.0,10.0,91,0.00,,,0.00,meteohub,2013-08-02 11:22:00,
2013-08-02 04:27:00,55.8,53.2,29.98,South,176,8.0,10.0,91,0.00,,,0.00,meteohub,2013-08-02 11:27:00,
2013-08-02 04:32:00,55.6,53.1,29.98,SSE,166,6.0,11.0,91,0.00,,,0.00,meteohub,2013-08-02 11:32:00,
2013-08-02 04:37:00,55.4,52.9,29.99,South,182,5.0,12.0,91,0.00,,,0.00,meteohub,2013-08-02 11:37:00,
2013-08-02 04:42:00,55.2,52.7,29.99,South,184,6.0,13.0,91,0.00,,,0.00,meteohub,2013-08-02 11:42:00,
2013-08-02 04:47:00,55.2,52.7,29.99,South,187,11.0,13.0,91,0.00,,,0.00,meteohub,2013-08-02 11:47:00,
2013-08-02 04:52:00,55.2,52.7,29.99,North,359,8.0,11.0,91,0.00,,,0.00,meteohub,2013-08-02 11:52:00,
2013-08-02 04:57:00,55.2,52.7,29.99,SSE,159,8.0,11.0,91,0.00,,,0.00,meteohub,2013-08-02 11:57:00,
2013-08-02 05:02:00,55.6,53.2,29.99,SSE,160,10.0,11.0,92,0.00,,,0.00,meteohub,2013-08-02 12:02:00,
2013-08-02 05:08:00,55.8,53.4,29.99,South,188,10.0,12.0,92,0.00,,,0.00,meteohub,2013-08-02 12:08:00,
2013-08-02 05:13:00,55.8,53.4,29.99,SE,131,7.0,13.0,92,0.00,,,0.00,meteohub,2013-08-02 12:13:00,
2013-08-02 05:18:00,55.8,53.4,29.99,SSE,160,5.0,13.0,92,0.00,,,0.00,meteohub,2013-08-02 12:18:00,
2013-08-02 05:23:00,55.8,53.4,29.99,SSE,155,7.0,15.0,92,0.00,,,0.00,meteohub,2013-08-02 12:23:00,
2013-08-02 05:28:00,55.8,53.2,29.99,SSE,166,8.0,15.0,91,0.00,,,0.00,meteohub,2013-08-02 12:28:00,
2013-08-02 05:33:00,55.8,53.2,29.99,SSE,160,7.0,15.0,91,0.00,,,0.00,meteohub,2013-08-02 12:33:00,
2013-08-02 05:38:00,55.8,53.2,29.99,SSE,166,11.0,15.0,91,0.00,,,0.00,meteohub,2013-08-02 12:38:00,
2013-08-02 05:43:00,55.8,53.2,29.99,SSE,162,8.0,13.0,91,0.00,,,0.00,meteohub,2013-08-02 12:43:00,
2013-08-02 05:49:00,55.8,53.2,29.99,South,172,7.0,12.0,91,0.00,,,0.00,meteohub,2013-08-02 12:49:00,
2013-08-02 05:54:00,55.6,53.1,30.00,SSE,164,5.0,13.0,91,0.00,,,0.00,meteohub,2013-08-02 12:54:00,
2013-08-02 05:59:00,55.4,52.9,30.00,SSE,166,8.0,13.0,91,0.00,,,0.00,meteohub,2013-08-02 12:59:00,
2013-08-02 06:04:00,55.4,53.1,30.01,South,183,10.0,13.0,92,0.00,,,0.00,meteohub,2013-08-02 13:04:00,
2013-08-02 06:09:00,55.2,52.7,30.01,South,185,9.0,14.0,91,0.00,,,0.00,meteohub,2013-08-02 13:09:00,
2013-08-02 06:14:00,55.2,52.9,30.01,SSW,192,7.0,14.0,92,0.00,,,0.00,meteohub,2013-08-02 13:14:00,
2013-08-02 06:19:00,55.2,52.9,30.01,South,181,6.0,14.0,92,0.00,,,0.00,meteohub,2013-08-02 13:19:00,
2013-08-02 06:24:00,55.2,52.9,30.01,South,187,9.0,12.0,92,0.00,,,0.00,meteohub,2013-08-02 13:24:00,
2013-08-02 06:29:00,55.0,52.7,30.01,SSW,199,5.0,12.0,92,0.00,,,0.00,meteohub,2013-08-02 13:29:00,
2013-08-02 06:35:00,55.0,52.7,30.01,South,183,5.0,12.0,92,0.00,,,0.00,meteohub,2013-08-02 13:35:00,
2013-08-02 06:40:00,55.0,53.1,30.01,South,179,6.0,12.0,93,0.00,,,0.00,meteohub,2013-08-02 13:40:00,
2013-08-02 06:45:00,55.0,53.1,30.01,South,190,9.0,11.0,93,0.00,,,0.00,meteohub,2013-08-02 13:45:00,
2013-08-02 06:50:00,54.9,52.5,30.01,SSW,207,11.0,11.0,92,0.00,,,0.00,meteohub,2013-08-02 13:50:00,
2013-08-02 06:55:00,54.7,52.7,30.01,SSW,200,5.0,11.0,93,0.00,,,0.00,meteohub,2013-08-02 13:55:00,
2013-08-02 07:00:00,54.5,52.5,30.01,South,189,6.0,11.0,93,0.00,,,0.00,meteohub,2013-08-02 14:00:00,
2013-08-02 07:05:00,54.3,52.3,30.01,South,189,13.0,13.0,93,0.00,,,0.00,meteohub,2013-08-02 14:05:00,
2013-08-02 07:10:00,54.3,52.3,30.01,South,177,9.0,13.0,93,0.00,,,0.00,meteohub,2013-08-02 14:10:00,
2013-08-02 07:15:00,54.1,52.2,30.01,SSW,193,7.0,14.0,93,0.00,,,0.00,meteohub,2013-08-02 14:15:00,
2013-08-02 07:20:00,54.1,52.2,30.02,South,175,4.0,14.0,93,0.00,,,0.00,meteohub,2013-08-02 14:20:00,
2013-08-02 07:26:00,54.0,52.0,30.01,SSW,201,5.0,13.0,93,0.00,,,0.00,meteohub,2013-08-02 14:26:00,
2013-08-02 07:31:00,54.0,52.0,30.02,SSW,194,8.0,13.0,93,0.00,,,0.00,meteohub,2013-08-02 14:31:00,
2013-08-02 07:36:00,54.1,52.2,30.02,SSW,194,14.0,14.0,93,0.00,,,0.00,meteohub,2013-08-02 14:36:00,
2013-08-02 07:41:00,54.1,52.2,30.02,SSW,195,8.0,15.0,93,0.00,,,0.00,meteohub,2013-08-02 14:41:00,
2013-08-02 07:46:00,54.1,52.2,30.02,SSW,204,6.0,15.0,93,0.00,,,0.00,meteohub,2013-08-02 14:46:00,
2013-08-02 07:51:00,54.3,52.3,30.02,SSE,166,7.0,15.0,93,0.00,,,0.00,meteohub,2013-08-02 14:51:00,
2013-08-02 07:56:00,54.1,52.2,30.03,South,175,9.0,13.0,93,0.00,,,0.00,meteohub,2013-08-02 14:56:00,
2013-08-02 08:01:00,54.1,52.2,30.03,SSW,202,7.0,16.0,93,0.00,,,0.00,meteohub,2013-08-02 15:01:00,
2013-08-02 08:06:00,54.1,52.2,30.03,SSW,194,10.0,16.0,93,0.00,,,0.00,meteohub,2013-08-02 15:06:00,
2013-08-02 08:11:00,54.1,52.2,30.03,SSW,208,9.0,14.0,93,0.00,,,0.00,meteohub,2013-08-02 15:11:00,
2013-08-02 08:17:00,54.1,52.2,30.03,SSW,194,9.0,14.0,93,0.00,,,0.00,meteohub,2013-08-02 15:17:00,
2013-08-02 08:22:00,54.1,52.2,30.03,SSW,204,7.0,16.0,93,0.00,,,0.00,meteohub,2013-08-02 15:22:00,
2013-08-02 08:27:00,54.3,52.0,30.03,South,183,7.0,16.0,92,0.00,,,0.00,meteohub,2013-08-02 15:27:00,
2013-08-02 08:32:00,54.3,52.3,30.03,South,191,5.0,16.0,93,0.00,,,0.00,meteohub,2013-08-02 15:32:00,
2013-08-02 08:37:00,54.7,52.3,30.03,SSW,203,9.0,13.0,92,0.00,,,0.00,meteohub,2013-08-02 15:37:00,
2013-08-02 08:43:00,54.7,52.3,30.04,SSW,200,4.0,12.0,92,0.00,,,0.00,meteohub,2013-08-02 15:43:00,
2013-08-02 08:48:00,54.9,52.5,30.04,South,182,9.0,12.0,92,0.00,,,0.00,meteohub,2013-08-02 15:48:00,
2013-08-02 08:53:00,54.9,52.5,30.04,SSE,161,9.0,12.0,92,0.00,,,0.00,meteohub,2013-08-02 15:53:00,
2013-08-02 08:58:00,55.2,52.7,30.04,South,177,10.0,11.0,91,0.00,,,0.00,meteohub,2013-08-02 15:58:00,
2013-08-02 09:03:00,55.2,52.7,30.04,South,176,8.0,13.0,91,0.00,,,0.00,meteohub,2013-08-02 16:03:00,
2013-08-02 09:09:00,55.2,52.3,30.04,South,183,4.0,13.0,90,0.00,,,0.00,meteohub,2013-08-02 16:09:00,
2013-08-02 09:14:00,55.4,52.5,30.04,SSW,192,10.0,12.0,90,0.00,,,0.00,meteohub,2013-08-02 16:14:00,
2013-08-02 09:19:00,55.2,52.3,30.04,SSW,204,6.0,14.0,90,0.00,,,0.00,meteohub,2013-08-02 16:19:00,
2013-08-02 09:24:00,55.4,52.5,30.04,SSW,196,10.0,14.0,90,0.00,,,0.00,meteohub,2013-08-02 16:24:00,
2013-08-02 09:29:00,55.6,52.3,30.04,SSW,195,10.0,14.0,89,0.00,,,0.00,meteohub,2013-08-02 16:29:00,
2013-08-02 09:34:00,55.6,52.7,30.04,SSE,168,9.0,13.0,90,0.00,,,0.00,meteohub,2013-08-02 16:34:00,
2013-08-02 09:39:00,55.8,52.5,30.04,South,170,9.0,13.0,89,0.00,,,0.00,meteohub,2013-08-02 16:39:00,
2013-08-02 09:44:00,55.8,52.5,30.04,SSW,196,7.0,13.0,89,0.00,,,0.00,meteohub,2013-08-02 16:44:00,
2013-08-02 09:49:00,55.9,52.7,30.03,SSE,156,9.0,14.0,89,0.00,,,0.00,meteohub,2013-08-02 16:49:00,
2013-08-02 09:54:00,56.3,52.9,30.03,SSE,165,10.0,14.0,88,0.00,,,0.00,meteohub,2013-08-02 16:54:00,
2013-08-02 10:00:00,56.7,53.4,30.03,South,183,10.0,14.0,89,0.00,,,0.00,meteohub,2013-08-02 17:00:00,
2013-08-02 10:05:00,57.0,53.2,30.03,SSE,166,10.0,14.0,87,0.00,,,0.00,meteohub,2013-08-02 17:05:00,
2013-08-02 10:10:00,57.0,53.2,30.03,SSE,152,11.0,13.0,87,0.00,,,0.00,meteohub,2013-08-02 17:10:00,
2013-08-02 10:15:00,56.8,53.1,30.03,SSE,160,13.0,14.0,87,0.00,,,0.00,meteohub,2013-08-02 17:15:00,
2013-08-02 10:20:00,56.8,52.7,30.03,South,189,6.0,16.0,86,0.00,,,0.00,meteohub,2013-08-02 17:20:00,
2013-08-02 10:25:00,57.6,53.8,30.03,South,175,13.0,16.0,87,0.00,,,0.00,meteohub,2013-08-02 17:25:00,
2013-08-02 10:30:00,57.6,53.1,30.03,South,181,12.0,16.0,85,0.00,,,0.00,meteohub,2013-08-02 17:30:00,
2013-08-02 10:35:00,57.4,53.2,30.03,SW,216,10.0,15.0,86,0.00,,,0.00,meteohub,2013-08-02 17:35:00,
2013-08-02 10:40:00,57.7,53.2,30.04,SSW,210,9.0,15.0,85,0.00,,,0.00,meteohub,2013-08-02 17:40:00,
2013-08-02 10:45:00,57.7,53.2,30.03,South,189,10.0,16.0,85,0.00,,,0.00,meteohub,2013-08-02 17:45:00,
2013-08-02 10:50:00,58.3,53.4,30.03,SW,216,12.0,16.0,84,0.00,,,0.00,meteohub,2013-08-02 17:50:00,
2013-08-02 10:55:00,58.3,53.8,30.03,SW,232,13.0,16.0,85,0.00,,,0.00,meteohub,2013-08-02 17:55:00,
2013-08-02 11:00:00,57.6,53.1,30.03,SSW,199,10.0,16.0,85,0.00,,,0.00,meteohub,2013-08-02 18:00:00,
2013-08-02 11:05:00,57.0,52.9,30.03,SSW,198,7.0,16.0,86,0.00,,,0.00,meteohub,2013-08-02 18:05:00,
2013-08-02 11:11:00,56.8,53.1,30.03,SW,219,13.0,16.0,87,0.00,,,0.00,meteohub,2013-08-02 18:11:00,
2013-08-02 11:16:00,57.0,52.9,30.03,SSW,209,8.0,15.0,86,0.00,,,0.00,meteohub,2013-08-02 18:16:00,
2013-08-02 11:21:00,57.0,52.9,30.03,SW,214,14.0,15.0,86,0.00,,,0.00,meteohub,2013-08-02 18:21:00,
2013-08-02 11:26:00,57.0,52.9,30.03,SSW,202,14.0,16.0,86,0.00,,,0.00,meteohub,2013-08-02 18:26:00,
2013-08-02 11:31:00,57.2,53.4,30.02,WSW,248,10.0,16.0,87,0.00,,,0.00,meteohub,2013-08-02 18:31:00,
2013-08-02 11:32:00,57.4,53.6,30.02,SSW,195,11.0,16.0,87,0.00,,,0.00,meteohub,2013-08-02 18:32:00,
2013-08-02 11:37:00,57.9,53.4,30.02,SSW,195,14.0,16.0,85,0.00,,,0.00,meteohub,2013-08-02 18:37:00,
2013-08-02 11:42:00,58.3,54.1,30.03,SSW,204,7.0,16.0,86,0.00,,,0.00,meteohub,2013-08-02 18:42:00,
2013-08-02 11:47:00,58.6,54.1,30.02,SSW,207,9.0,16.0,85,0.00,,,0.00,meteohub,2013-08-02 18:47:00,
2013-08-02 11:52:00,58.5,54.0,30.02,SSW,211,12.0,16.0,85,0.00,,,0.00,meteohub,2013-08-02 18:52:00,
2013-08-02 11:57:00,58.1,54.0,30.02,SSW,206,13.0,18.0,86,0.00,,,0.00,meteohub,2013-08-02 18:57:00,
2013-08-02 12:02:00,58.3,53.4,30.02,SW,216,10.0,18.0,84,0.00,,,0.00,meteohub,2013-08-02 19:02:00,
2013-08-02 12:07:00,58.6,53.4,30.02,SW,233,9.0,18.0,83,0.00,,,0.00,meteohub,2013-08-02 19:07:00,
2013-08-02 12:12:00,58.6,53.4,30.02,SSW,195,12.0,18.0,83,0.00,,,0.00,meteohub,2013-08-02 19:12:00,
2013-08-02 12:17:00,59.0,54.1,30.02,SSW,193,7.0,18.0,84,0.00,,,0.00,meteohub,2013-08-02 19:17:00,
2013-08-02 12:22:00,59.5,54.3,30.02,SSW,208,12.0,18.0,83,0.00,,,0.00,meteohub,2013-08-02 19:22:00,
2013-08-02 12:28:00,59.4,54.1,30.01,South,174,13.0,17.0,83,0.00,,,0.00,meteohub,2013-08-02 19:28:00,
2013-08-02 12:33:00,59.5,54.0,30.01,SSW,210,14.0,17.0,82,0.00,,,0.00,meteohub,2013-08-02 19:33:00,
2013-08-02 12:38:00,59.2,53.6,30.01,SSW,212,17.0,17.0,82,0.00,,,0.00,meteohub,2013-08-02 19:38:00,
2013-08-02 12:43:00,58.8,53.6,30.01,SSW,210,9.0,19.0,83,0.00,,,0.00,meteohub,2013-08-02 19:43:00,
2013-08-02 12:48:00,58.8,54.0,30.01,SW,220,16.0,19.0,84,0.00,,,0.00,meteohub,2013-08-02 19:48:00,
2013-08-02 12:53:00,59.2,54.3,30.01,SSW,208,10.0,20.0,84,0.00,,,0.00,meteohub,2013-08-02 19:53:00,
2013-08-02 12:58:00,59.4,54.1,30.01,SSW,194,14.0,20.0,83,0.00,,,0.00,meteohub,2013-08-02 19:58:00,
2013-08-02 13:04:00,59.4,54.1,30.01,SSW,207,14.0,20.0,83,0.00,,,0.00,meteohub,2013-08-02 20:04:00,
2013-08-02 13:09:00,59.4,53.8,30.01,SSW,207,11.0,21.0,82,0.00,,,0.00,meteohub,2013-08-02 20:09:00,
2013-08-02 13:14:00,60.6,55.0,30.01,South,182,10.0,21.0,82,0.00,,,0.00,meteohub,2013-08-02 20:14:00,
2013-08-02 13:19:00,61.0,54.5,30.01,SW,216,10.0,21.0,79,0.00,,,0.00,meteohub,2013-08-02 20:19:00,
2013-08-02 13:24:00,60.3,54.1,30.01,SSW,204,17.0,19.0,80,0.00,,,0.00,meteohub,2013-08-02 20:24:00,
2013-08-02 13:29:00,59.7,54.1,30.00,South,186,10.0,19.0,82,0.00,,,0.00,meteohub,2013-08-02 20:29:00,
2013-08-02 13:34:00,60.3,54.3,30.00,SSW,198,10.0,20.0,81,0.00,,,0.00,meteohub,2013-08-02 20:34:00,
2013-08-02 13:39:00,61.2,54.9,30.00,SSW,211,15.0,20.0,80,0.00,,,0.00,meteohub,2013-08-02 20:39:00,
2013-08-02 13:44:00,61.2,54.9,30.00,SSW,206,7.0,18.0,80,0.00,,,0.00,meteohub,2013-08-02 20:44:00,
2013-08-02 13:50:00,61.2,54.9,30.00,SSW,211,9.0,17.0,80,0.00,,,0.00,meteohub,2013-08-02 20:50:00,
2013-08-02 13:55:00,59.9,54.1,30.00,SSW,204,16.0,19.0,81,0.00,,,0.00,meteohub,2013-08-02 20:55:00,
2013-08-02 14:00:00,59.2,54.3,29.99,SSW,201,9.0,21.0,84,0.00,,,0.00,meteohub,2013-08-02 21:00:00,
2013-08-02 14:05:00,59.5,54.7,30.00,SW,215,16.0,21.0,84,0.00,,,0.00,meteohub,2013-08-02 21:05:00,
2013-08-02 14:10:00,60.1,55.2,30.00,SSW,198,17.0,21.0,84,0.00,,,0.00,meteohub,2013-08-02 21:10:00,
2013-08-02 14:16:00,59.9,55.0,29.99,SW,215,14.0,21.0,84,0.00,,,0.00,meteohub,2013-08-02 21:16:00,
2013-08-02 14:21:00,60.1,55.6,29.99,SSW,212,10.0,21.0,85,0.00,,,0.00,meteohub,2013-08-02 21:21:00,
2013-08-02 14:26:00,59.2,54.3,29.99,SSW,213,13.0,21.0,84,0.00,,,0.00,meteohub,2013-08-02 21:26:00,
2013-08-02 14:31:00,59.2,55.0,29.99,South,177,8.0,23.0,86,0.00,,,0.00,meteohub,2013-08-02 21:31:00,
2013-08-02 14:36:00,59.5,55.0,29.99,SSW,197,10.0,23.0,85,0.00,,,0.00,meteohub,2013-08-02 21:36:00,
2013-08-02 14:41:00,59.5,55.4,29.99,SSW,213,20.0,23.0,86,0.00,,,0.00,meteohub,2013-08-02 21:41:00,
2013-08-02 14:46:00,60.3,55.4,29.99,South,188,18.0,22.0,84,0.00,,,0.00,meteohub,2013-08-02 21:46:00,
2013-08-02 14:51:00,60.3,55.0,29.98,SSE,168,15.0,22.0,83,0.00,,,0.00,meteohub,2013-08-02 21:51:00,
2013-08-02 14:57:00,60.1,54.9,29.98,SSW,193,20.0,22.0,83,0.00,,,0.00,meteohub,2013-08-02 21:57:00,
2013-08-02 15:02:00,60.6,55.4,29.98,South,191,19.0,23.0,83,0.00,,,0.00,meteohub,2013-08-02 22:02:00,
2013-08-02 15:07:00,60.8,55.6,29.98,SSW,198,10.0,23.0,83,0.00,,,0.00,meteohub,2013-08-02 22:07:00,
2013-08-02 15:12:00,61.0,55.8,29.98,SSW,197,13.0,23.0,83,0.00,,,0.00,meteohub,2013-08-02 22:12:00,
2013-08-02 15:17:00,61.3,55.8,29.98,South,188,13.0,20.0,82,0.00,,,0.00,meteohub,2013-08-02 22:17:00,
2013-08-02 15:22:00,61.5,55.9,29.98,SSW,208,11.0,20.0,82,0.00,,,0.00,meteohub,2013-08-02 22:22:00,
2013-08-02 15:27:00,62.1,56.1,29.97,South,179,8.0,18.0,81,0.00,,,0.00,meteohub,2013-08-02 22:27:00,
2013-08-02 15:32:00,61.9,55.9,29.97,SSE,158,15.0,18.0,81,0.00,,,0.00,meteohub,2013-08-02 22:32:00,
2013-08-02 15:37:00,62.1,55.8,29.97,SSW,194,17.0,19.0,80,0.00,,,0.00,meteohub,2013-08-02 22:37:00,
2013-08-02 15:42:00,62.1,56.5,29.97,SSW,192,12.0,20.0,82,0.00,,,0.00,meteohub,2013-08-02 22:42:00,
2013-08-02 15:47:00,62.1,55.8,29.97,SSE,166,12.0,20.0,80,0.00,,,0.00,meteohub,2013-08-02 22:47:00,
2013-08-02 15:53:00,61.0,55.8,29.97,SSE,164,17.0,20.0,83,0.00,,,0.00,meteohub,2013-08-02 22:53:00,
2013-08-02 15:58:00,61.0,56.1,29.97,SSE,153,11.0,19.0,84,0.00,,,0.00,meteohub,2013-08-02 22:58:00,
2013-08-02 16:03:00,60.6,55.8,29.97,South,180,15.0,19.0,84,0.00,,,0.00,meteohub,2013-08-02 23:03:00,
2013-08-02 16:08:00,60.4,55.6,29.97,South,177,11.0,19.0,84,0.00,,,0.00,meteohub,2013-08-02 23:08:00,
2013-08-02 16:14:00,60.4,55.9,29.97,SSE,165,13.0,22.0,85,0.00,,,0.00,meteohub,2013-08-02 23:14:00,
2013-08-02 16:19:00,60.3,55.8,29.97,South,181,20.0,22.0,85,0.00,,,0.00,meteohub,2013-08-02 23:19:00,
2013-08-02 16:24:00,60.3,55.4,29.97,South,187,18.0,21.0,84,0.00,,,0.00,meteohub,2013-08-02 23:24:00,
2013-08-02 16:29:00,60.3,55.8,29.97,South,191,8.0,22.0,85,0.00,,,0.00,meteohub,2013-08-02 23:29:00,
2013-08-02 16:34:00,59.4,54.5,29.97,SSE,158,16.0,22.0,84,0.00,,,0.00,meteohub,2013-08-02 23:34:00,
2013-08-02 16:39:00,59.0,54.9,29.97,South,191,17.0,22.0,86,0.00,,,0.00,meteohub,2013-08-02 23:39:00,
2013-08-02 16:44:00,59.2,55.4,29.97,South,171,16.0,23.0,87,0.00,,,0.00,meteohub,2013-08-02 23:44:00,
2013-08-02 16:49:00,59.2,55.4,29.97,South,183,14.0,23.0,87,0.00,,,0.00,meteohub,2013-08-02 23:49:00,
2013-08-02 16:54:00,59.4,55.4,29.97,South,188,19.0,24.0,87,0.00,,,0.00,meteohub,2013-08-02 23:54:00,
2013-08-02 16:59:00,59.0,54.9,29.97,SSE,160,15.0,24.0,86,0.00,,,0.00,meteohub,2013-08-02 23:59:00,
2013-08-02 17:05:00,58.8,54.7,29.97,South,189,10.0,23.0,86,0.00,,,0.00,meteohub,2013-08-03 00:05:00,
2013-08-02 17:10:00,59.2,55.0,29.97,SSE,166,9.0,23.0,86,0.00,,,0.00,meteohub,2013-08-03 00:10:00,
2013-08-02 17:15:00,58.6,54.5,29.96,South,187,10.0,22.0,86,0.00,,,0.00,meteohub,2013-08-03 00:15:00,
2013-08-02 17:20:00,58.8,54.7,29.96,South,179,21.0,22.0,86,0.00,,,0.00,meteohub,2013-08-03 00:20:00,
2013-08-02 17:25:00,58.6,54.9,29.96,SSW,199,15.0,24.0,87,0.00,,,0.00,meteohub,2013-08-03 00:25:00,
2013-08-02 17:30:00,58.8,54.7,29.96,SSW,193,15.0,24.0,86,0.00,,,0.00,meteohub,2013-08-03 00:30:00,
2013-08-02 17:36:00,58.6,54.5,29.97,ESE,121,10.0,24.0,86,0.00,,,0.00,meteohub,2013-08-03 00:36:00,
2013-08-02 17:41:00,58.5,54.7,29.96,SSW,193,9.0,23.0,87,0.00,,,0.00,meteohub,2013-08-03 00:41:00,
2013-08-02 17:46:00,58.3,54.5,29.96,SSE,166,18.0,23.0,87,0.00,,,0.00,meteohub,2013-08-03 00:46:00,
2013-08-02 17:51:00,58.3,54.5,29.96,SSE,163,9.0,23.0,87,0.00,,,0.00,meteohub,2013-08-03 00:51:00,
2013-08-02 17:56:00,57.9,54.1,29.96,South,178,18.0,24.0,87,0.00,,,0.00,meteohub,2013-08-03 00:56:00,
2013-08-02 18:01:00,58.1,54.5,29.96,SSE,156,16.0,27.0,88,0.00,,,0.00,meteohub,2013-08-03 01:01:00,
2013-08-02 18:06:00,58.3,54.5,29.96,South,173,8.0,27.0,87,0.00,,,0.00,meteohub,2013-08-03 01:06:00,
2013-08-02 18:12:00,57.9,54.1,29.96,South,176,22.0,24.0,87,0.00,,,0.00,meteohub,2013-08-03 01:12:00,
2013-08-02 18:17:00,57.9,54.3,29.96,SSE,152,16.0,22.0,88,0.00,,,0.00,meteohub,2013-08-03 01:17:00,
2013-08-02 18:22:00,57.9,54.3,29.96,SSE,158,16.0,23.0,88,0.00,,,0.00,meteohub,2013-08-03 01:22:00,
2013-08-02 18:27:00,57.9,54.1,29.96,South,182,9.0,23.0,87,0.00,,,0.00,meteohub,2013-08-03 01:27:00,
2013-08-02 18:33:00,57.9,54.3,29.96,SSE,162,17.0,23.0,88,0.00,,,0.00,meteohub,2013-08-03 01:33:00,
2013-08-02 18:38:00,57.7,54.0,29.95,South,170,16.0,22.0,87,0.00,,,0.00,meteohub,2013-08-03 01:38:00,
2013-08-02 18:43:00,57.4,53.8,29.96,South,177,10.0,24.0,88,0.00,,,0.00,meteohub,2013-08-03 01:43:00,
2013-08-02 18:48:00,57.6,53.8,29.96,South,188,13.0,24.0,87,0.00,,,0.00,meteohub,2013-08-03 01:48:00,
2013-08-02 18:53:00,57.0,53.4,29.96,South,179,16.0,24.0,88,0.00,,,0.00,meteohub,2013-08-03 01:53:00,
2013-08-02 18:58:00,57.2,54.0,29.96,South,182,9.0,26.0,89,0.00,,,0.00,meteohub,2013-08-03 01:58:00,
2013-08-02 19:03:00,57.0,53.8,29.96,SSW,195,13.0,26.0,89,0.00,,,0.00,meteohub,2013-08-03 02:03:00,
2013-08-02 19:09:00,57.0,53.8,29.96,SSW,195,7.0,26.0,89,0.00,,,0.00,meteohub,2013-08-03 02:09:00,
2013-08-02 19:14:00,56.8,53.6,29.96,SSE,160,22.0,22.0,89,0.00,,,0.00,meteohub,2013-08-03 02:14:00,
2013-08-02 19:19:00,56.7,53.4,29.96,South,170,20.0,22.0,89,0.00,,,0.00,meteohub,2013-08-03 02:19:00,
2013-08-02 19:24:00,56.7,53.4,29.96,South,185,14.0,22.0,89,0.00,,,0.00,meteohub,2013-08-03 02:24:00,
2013-08-02 19:29:00,56.5,53.6,29.96,South,173,12.0,22.0,90,0.00,,,0.00,meteohub,2013-08-03 02:29:00,
2013-08-02 19:34:00,56.5,53.6,29.96,SSE,154,14.0,22.0,90,0.00,,,0.00,meteohub,2013-08-03 02:34:00,
2013-08-02 19:39:00,56.5,53.6,29.96,SSE,166,8.0,22.0,90,0.00,,,0.00,meteohub,2013-08-03 02:39:00,
2013-08-02 19:44:00,56.1,53.2,29.96,SSE,168,16.0,22.0,90,0.00,,,0.00,meteohub,2013-08-03 02:44:00,
2013-08-02 19:49:00,55.9,53.1,29.96,SSE,167,8.0,22.0,90,0.00,,,0.00,meteohub,2013-08-03 02:49:00,
2013-08-02 19:54:00,55.9,53.1,29.96,SSE,160,14.0,22.0,90,0.00,,,0.00,meteohub,2013-08-03 02:54:00,
2013-08-02 19:59:00,55.9,53.1,29.96,SSW,192,14.0,22.0,90,0.00,,,0.00,meteohub,2013-08-03 02:59:00,
2013-08-02 20:04:00,55.8,52.9,29.96,South,188,15.0,22.0,90,0.00,,,0.00,meteohub,2013-08-03 03:04:00,
2013-08-02 20:09:00,55.8,52.9,29.96,SSE,162,10.0,22.0,90,0.00,,,0.00,meteohub,2013-08-03 03:09:00,
2013-08-02 20:15:00,55.8,52.9,29.96,South,191,10.0,22.0,90,0.00,,,0.00,meteohub,2013-08-03 03:15:00,
2013-08-02 20:20:00,55.6,52.7,29.97,South,179,12.0,22.0,90,0.00,,,0.00,meteohub,2013-08-03 03:20:00,
2013-08-02 20:25:00,55.8,53.2,29.97,South,170,8.0,20.0,91,0.00,,,0.00,meteohub,2013-08-03 03:25:00,
2013-08-02 20:30:00,55.8,52.9,29.97,South,189,11.0,20.0,90,0.00,,,0.00,meteohub,2013-08-03 03:30:00,
2013-08-02 20:35:00,55.6,52.7,29.96,South,189,15.0,20.0,90,0.00,,,0.00,meteohub,2013-08-03 03:35:00,
2013-08-02 20:41:00,55.6,52.7,29.97,SSE,163,16.0,21.0,90,0.00,,,0.00,meteohub,2013-08-03 03:41:00,
2013-08-02 20:47:00,55.6,53.1,29.97,South,189,13.0,21.0,91,0.00,,,0.00,meteohub,2013-08-03 03:47:00,
2013-08-02 20:52:00,55.4,52.9,29.97,SSW,196,12.0,21.0,91,0.00,,,0.00,meteohub,2013-08-03 03:52:00,
2013-08-02 20:57:00,55.2,52.7,29.97,SSE,154,14.0,21.0,91,0.00,,,0.00,meteohub,2013-08-03 03:57:00,
2013-08-02 21:01:00,55.2,52.7,29.97,South,176,15.0,18.0,91,0.00,,,0.00,meteohub,2013-08-03 04:01:00,
2013-08-02 21:02:00,55.2,52.7,29.97,South,173,11.0,18.0,91,0.00,,,0.00,meteohub,2013-08-03 04:02:00,
2013-08-02 21:03:00,55.2,52.7,29.97,SSE,153,11.0,18.0,91,0.00,,,0.00,meteohub,2013-08-03 04:03:00,
2013-08-02 21:08:00,55.2,52.7,29.97,South,171,12.0,22.0,91,0.00,,,0.00,meteohub,2013-08-03 04:08:00,
2013-08-02 21:13:00,55.2,52.7,29.98,SSE,165,8.0,22.0,91,0.00,,,0.00,meteohub,2013-08-03 04:13:00,
2013-08-02 21:18:00,55.0,52.5,29.98,SSW,201,11.0,22.0,91,0.00,,,0.00,meteohub,2013-08-03 04:18:00,
2013-08-02 21:23:00,55.0,52.5,29.98,SSE,164,11.0,22.0,91,0.00,,,0.00,meteohub,2013-08-03 04:23:00,
2013-08-02 21:28:00,54.9,52.3,29.98,South,184,8.0,22.0,91,0.00,,,0.00,meteohub,2013-08-03 04:28:00,
2013-08-02 21:33:00,54.9,52.3,29.98,South,172,16.0,21.0,91,0.00,,,0.00,meteohub,2013-08-03 04:33:00,
2013-08-02 21:38:00,54.7,52.2,29.98,SSW,208,14.0,21.0,91,0.00,,,0.00,meteohub,2013-08-03 04:38:00,
2013-08-02 21:43:00,54.7,52.2,29.98,SSW,209,17.0,21.0,91,0.00,,,0.00,meteohub,2013-08-03 04:43:00,
2013-08-02 21:48:00,54.7,52.2,29.98,South,179,11.0,21.0,91,0.00,,,0.00,meteohub,2013-08-03 04:48:00,
2013-08-02 21:53:00,54.7,52.2,29.98,SSW,199,10.0,21.0,91,0.00,,,0.00,meteohub,2013-08-03 04:53:00,
2013-08-02 21:58:00,54.5,52.0,29.99,SSE,157,11.0,21.0,91,0.00,,,0.00,meteohub,2013-08-03 04:58:00,
2013-08-02 22:04:00,54.3,52.0,29.99,SSW,192,14.0,20.0,92,0.00,,,0.00,meteohub,2013-08-03 05:04:00,
2013-08-02 22:09:00,54.3,52.0,29.99,South,174,12.0,23.0,92,0.00,,,0.00,meteohub,2013-08-03 05:09:00,
2013-08-02 22:14:00,54.3,52.0,29.99,SSE,168,14.0,23.0,92,0.00,,,0.00,meteohub,2013-08-03 05:14:00,
2013-08-02 22:19:00,54.3,52.0,29.99,South,184,13.0,23.0,92,0.00,,,0.00,meteohub,2013-08-03 05:19:00,
2013-08-02 22:24:00,54.3,52.0,29.99,SW,214,16.0,22.0,92,0.00,,,0.00,meteohub,2013-08-03 05:24:00,
2013-08-02 22:29:00,54.1,51.8,29.98,South,175,17.0,22.0,92,0.00,,,0.00,meteohub,2013-08-03 05:29:00,
2013-08-02 22:34:00,54.1,51.8,29.98,South,175,11.0,21.0,92,0.00,,,0.00,meteohub,2013-08-03 05:34:00,
2013-08-02 22:39:00,54.1,51.8,29.98,SSW,195,16.0,21.0,92,0.00,,,0.00,meteohub,2013-08-03 05:39:00,
2013-08-02 22:44:00,54.1,51.8,29.99,SSW,196,14.0,21.0,92,0.00,,,0.00,meteohub,2013-08-03 05:44:00,
2013-08-02 22:49:00,54.1,51.8,29.98,SSW,194,17.0,20.0,92,0.00,,,0.00,meteohub,2013-08-03 05:49:00,
2013-08-02 22:54:00,54.1,51.8,29.99,SSE,164,11.0,18.0,92,0.00,,,0.00,meteohub,2013-08-03 05:54:00,
2013-08-02 23:00:00,54.1,52.2,29.99,South,181,10.0,22.0,93,0.00,,,0.00,meteohub,2013-08-03 06:00:00,
2013-08-02 23:05:00,54.1,51.8,29.99,SSE,166,9.0,21.0,92,0.00,,,0.00,meteohub,2013-08-03 06:05:00,
2013-08-02 23:10:00,54.1,52.2,29.99,South,169,9.0,20.0,93,0.00,,,0.00,meteohub,2013-08-03 06:10:00,
2013-08-02 23:15:00,54.3,52.0,29.99,SSW,193,17.0,20.0,92,0.00,,,0.00,meteohub,2013-08-03 06:15:00,
2013-08-02 23:20:00,54.1,51.8,29.99,SSW,210,10.0,20.0,92,0.00,,,0.00,meteohub,2013-08-03 06:20:00,
2013-08-02 23:25:00,54.3,52.3,29.99,SSW,207,9.0,21.0,93,0.00,,,0.00,meteohub,2013-08-03 06:25:00,
2013-08-02 23:31:00,54.3,52.3,29.99,South,174,16.0,21.0,93,0.00,,,0.00,meteohub,2013-08-03 06:31:00,
2013-08-02 23:36:00,54.3,52.3,29.99,South,187,14.0,22.0,93,0.00,,,0.00,meteohub,2013-08-03 06:36:00,
2013-08-02 23:41:00,54.7,52.3,29.98,South,183,16.0,22.0,92,0.00,,,0.00,meteohub,2013-08-03 06:41:00,
2013-08-02 23:46:00,54.7,52.3,29.99,SSW,195,7.0,20.0,92,0.00,,,0.00,meteohub,2013-08-03 06:46:00,
2013-08-02 23:51:00,54.7,52.3,29.99,SSW,208,11.0,20.0,92,0.00,,,0.00,meteohub,2013-08-03 06:51:00,
2013-08-02 23:57:00,54.7,52.3,29.99,SSW,204,12.0,20.0,92,0.00,,,0.00,meteohub,2013-08-03 06:57:00,